METAR Data
IDs: Format: Raw Decoded Include TAF

Data at: 0527 UTC 24 Sep 2018

K5A6 240515Z AUTO 00000KT 10SM SCT003 SCT055 BKN070 22/22 A2997 RMK AO2 T02230223
K5A6 240455Z AUTO 00000KT 10SM -RA SCT036 OVC080 22/22 A2997 RMK AO2 T02220222
K5A6 240435Z AUTO 00000KT 10SM SCT036 SCT045 BKN070 22/22 A2998 RMK AO2 T02220222
K5A6 240415Z AUTO 00000KT 10SM SCT038 BKN045 BKN050 22/22 A2997 RMK AO2 T02210221
K5A6 240355Z AUTO 00000KT 5SM -RA BKN039 OVC048 23/23 A2997 RMK AO2 T02250225
K5A6 240335Z AUTO 17003KT 7SM RA BKN039 BKN046 OVC065 23/23 A2998 RMK AO2 T02250225
K5A6 240315Z AUTO 00000KT 5SM -RA SCT033 BKN046 OVC065 23/23 A2998 RMK AO2 T02250225
K5A6 240255Z AUTO 00000KT 7SM -RA SCT003 BKN033 OVC090 23/23 A2998 RMK AO2 T02270227
K5A6 240235Z AUTO 00000KT 10SM -RA SCT047 SCT070 OVC090 23/23 A2997 RMK AO2 T02270227
K5A6 240215Z AUTO 36003KT 10SM -RA SCT050 SCT070 OVC100 23/23 A2997 RMK AO2 T02280228
K5A6 240155Z AUTO 35003KT 10SM -RA SCT045 SCT070 OVC100 23/23 A2997 RMK AO2 T02290229
K5A6 240135Z AUTO 36003KT 10SM -RA SCT011 BKN080 OVC100 23/23 A2997 RMK AO2 T02300230
K5A6 240115Z AUTO 31003KT 10SM -RA BKN009 BKN050 OVC080 23/23 A2997 RMK AO2 LTG DSNT S T02310231
K5A6 240055Z AUTO 00000KT 10SM -RA SCT010 BKN065 OVC110 23/23 A2996 RMK AO2 LTG DSNT S T02330233
K5A6 240035Z AUTO 29003KT 10SM -RA SCT008 BKN046 OVC085 24/24 A2996 RMK AO2 T02350235
K5A6 240015Z AUTO 31005KT 10SM -RA SCT042 BKN080 OVC095 24/24 A2995 RMK AO2 T02360236
K5A6 232355Z AUTO 00000KT 10SM -RA SCT007 BKN070 OVC095 24/24 A2995 RMK AO2 T02370237 10290 20224
K5A6 232335Z AUTO 16008KT 10SM -RA SCT042 SCT070 OVC095 24/24 A2996 RMK AO2 T02370237
K5A6 232315Z AUTO 00000KT 10SM -RA SCT070 OVC085 24/24 A2994 RMK AO2 T02380238
K5A6 232255Z AUTO 00000KT 10SM SCT085 BKN110 24/24 A2994 RMK AO2 LTG DSNT SW T02380238
K5A6 232235Z AUTO 00000KT 10SM SCT070 SCT085 SCT110 24/24 A2993 RMK AO2 T02380238
K5A6 232215Z AUTO 06004KT 10SM SCT075 BKN080 OVC100 24/24 A2992 RMK AO2 T02400240
K5A6 232155Z AUTO 00000KT 10SM BKN090 24/24 A2992 RMK AO2 T02410239
K5A6 232135Z AUTO 00000KT 10SM SCT038 SCT050 BKN080 24/24 A2992 RMK AO2 LTG DSNT W T02400237
K5A6 232115Z AUTO 23003KT 10SM -RA SCT035 BKN050 OVC080 24/24 A2992 RMK AO2 LTG DSNT SW AND W T02370237
K5A6 232055Z AUTO 24003KT 4SM -RA SCT033 BKN045 OVC065 23/23 A2993 RMK AO2 T02300230
K5A6 232035Z AUTO 20004KT 2 1/2SM +RA SCT023 BKN047 OVC070 23/23 A2995 RMK AO2 LTG DSNT N T02300230
K5A6 232015Z AUTO 01003KT 7SM -RA SCT017 BKN070 OVC080 23/23 A2995 RMK AO2 LTG DSNT N T02330233
K5A6 231955Z AUTO 00000KT 2 1/2SM -RA SCT018 BKN028 OVC080 23/22 A2994 RMK AO2 LTG DSNT E AND S T02260220
K5A6 231935Z AUTO 16013G19KT 5SM +RA SCT028 BKN034 OVC110 27/23 A2995 RMK AO2 LTG DSNT E T02670231
K5A6 231915Z AUTO 29003KT 10SM SCT028 SCT036 BKN046 29/22 A2994 RMK AO2 LTG DSNT NE T02890221
K5A6 231855Z AUTO 00000KT 10SM BKN028 BKN035 BKN045 28/22 A2995 RMK AO2 LTG DSNT SE T02830220
K5A6 231830Z AUTO 20003KT 10SM SCT026 28/22 A2997 RMK AO2 T02840223
K5A6 231815Z AUTO 20004KT 10SM SCT026 29/22 A2998 RMK AO2 T02850222
K5A6 231755Z AUTO 21005KT 10SM SCT022 29/23 A2998 RMK AO2 T02850226 10285 20220
K5A6 231735Z AUTO 24006KT 10SM BKN022 28/23 A2999 RMK AO2 T02780225
K5A6 231715Z AUTO 20004KT 10SM SCT022 SCT027 SCT055 28/23 A3000 RMK AO2 LTG DSNT SE T02750228
K5A6 231655Z AUTO 20007KT 10SM SCT020 SCT025 BKN044 27/23 A3000 RMK AO2 T02730229
K5A6 231635Z AUTO 22005KT 10SM BKN018 BKN026 BKN045 27/23 A3000 RMK AO2 T02730234
K5A6 231615Z AUTO 17006KT 10SM SCT011 27/24 A3001 RMK AO2 T02730239
K5A6 231555Z AUTO 18004KT 10SM SCT011 27/24 A3001 RMK AO2 T02650242
K5A6 231535Z AUTO 17003KT 10SM SCT009 26/24 A3001 RMK AO2 T02580242
K5A6 231515Z AUTO 19003KT 10SM BKN007 BKN046 25/24 A3001 RMK AO2 T02520241
K5A6 231455Z AUTO 00000KT 10SM BKN007 BKN046 24/24 A3001 RMK AO2 T02440240
K5A6 231435Z AUTO 17003KT 10SM BKN007 24/24 A3000 RMK AO2 T02370237
K5A6 231415Z AUTO 16003KT 10SM SCT009 SCT034 SCT040 24/24 A3000 RMK AO2 T02350235
K5A6 231355Z AUTO 16004KT 10SM SCT031 BKN037 23/23 A3000 RMK AO2 T02310231
K5A6 231335Z AUTO 00000KT 10SM SCT004 BKN034 BKN042 23/23 A2999 RMK AO2 T02290229
K5A6 231315Z AUTO 00000KT 10SM SCT004 BKN032 BKN110 23/23 A2999 RMK AO2 T02250225
K5A6 231255Z AUTO 00000KT 10SM SCT032 BKN120 22/22 A2999 RMK AO2 T02220222
K5A6 231235Z AUTO 00000KT 10SM SCT023 22/22 A2998 RMK AO2 T02210221
K5A6 231215Z AUTO 00000KT 10SM SCT023 22/22 A2997 RMK AO2 T02200220
K5A6 231155Z AUTO 00000KT 10SM SCT005 SCT100 22/22 A2997 RMK AO2 T02200220 10222 20217
K5A6 231135Z AUTO 00000KT 10SM SCT005 SCT100 22/22 A2996 RMK AO2 T02200220
K5A6 231115Z AUTO 00000KT 10SM SCT005 OVC090 22/22 A2996 RMK AO2 T02200220
K5A6 231055Z AUTO 00000KT 10SM SCT005 OVC090 22/22 A2996 RMK AO2 T02200220
K5A6 231035Z AUTO 00000KT 10SM SCT005 SCT090 22/22 A2995 RMK AO2 T02180218
K5A6 231015Z AUTO 00000KT 10SM SCT090 22/22 A2995 RMK AO2 T02170217
K5A6 230955Z AUTO 00000KT 10SM SCT090 22/22 A2995 RMK AO2 T02180218
K5A6 230935Z AUTO 00000KT 10SM BKN100 22/22 A2995 RMK AO2 T02200220
K5A6 230915Z AUTO 00000KT 10SM SCT013 BKN100 22/22 A2995 RMK AO2 T02200220
K5A6 230850Z AUTO 00000KT 10SM OVC100 22/22 A2995 RMK AO2 T02200220
K5A6 230835Z AUTO 00000KT 10SM BKN100 22/22 A2995 RMK AO2 T02180218
K5A6 230815Z AUTO 00000KT 10SM BKN100 BKN120 22/22 A2996 RMK AO2 T02170217
K5A6 230755Z AUTO 00000KT 10SM SCT110 22/22 A2996 RMK AO2 T02180218
K5A6 230735Z AUTO 00000KT 10SM SCT003 SCT120 22/22 A2996 RMK AO2 T02180218
K5A6 230715Z AUTO 00000KT 10SM BKN003 22/22 A2996 RMK AO2 T02190219
K5A6 230655Z AUTO 00000KT 10SM BKN003 22/22 A2997 RMK AO2 T02200220
K5A6 230635Z AUTO 00000KT 10SM CLR 22/22 A2997 RMK AO2 T02200220
K5A6 230615Z AUTO 00000KT 10SM SCT003 22/22 A2997 RMK AO2 T02220222
K5A6 230555Z AUTO 00000KT 10SM OVC003 22/22 A2997 RMK AO2 T02220222 10245 20221 403280211
K5A6 230535Z AUTO 00000KT 10SM BKN003 22/22 A2997 RMK AO2 T02210221
K5A6 230515Z AUTO 00000KT 10SM SCT003 22/22 A2997 RMK AO2 T02230223
K5A6 230455Z AUTO 00000KT 10SM SCT003 BKN120 22/22 A2998 RMK AO2 T02230223
K5A6 230435Z AUTO 03003KT 10SM SCT003 OVC120 23/23 A2999 RMK AO2 T02250225
K5A6 230415Z AUTO 02004KT 10SM SCT003 BKN110 23/23 A2999 RMK AO2 T02250225
K5A6 230355Z AUTO 06003KT 10SM SCT003 BKN110 23/23 A2999 RMK AO2 T02250225
K5A6 230335Z AUTO 00000KT 10SM SCT003 BKN100 23/23 A2999 RMK AO2 T02260226
K5A6 230315Z AUTO 06004KT 10SM SCT100 23/23 A2999 RMK AO2 LTG DSNT E T02260226
K5A6 230255Z AUTO 00000KT 10SM SCT055 BKN070 23/23 A3000 RMK AO2 T02290229
K5A6 230235Z AUTO 01003KT 10SM -RA SCT033 BKN042 BKN065 23/23 A3001 RMK AO2 LTG DSNT E T02300230
K5A6 230215Z AUTO 00000KT 10SM -RA SCT009 BKN031 OVC043 23/23 A3001 RMK AO2 LTG DSNT NE T02320230
K5A6 230155Z AUTO 25003KT 10SM BKN007 BKN014 BKN055 23/23 A3002 RMK AO2 LTG DSNT NE T02300229
K5A6 230135Z AUTO 00000KT 10SM SCT055 23/23 A3000 RMK AO2 LTG DSNT SW T02300227
K5A6 230115Z AUTO 04004KT 10SM CLR 23/23 A2998 RMK AO2 LTG DSNT E T02310226
K5A6 230055Z AUTO 02006KT 10SM SCT090 23/23 A2997 RMK AO2 LTG DSNT E AND SE T02320226
K5A6 230035Z AUTO 04005KT 10SM BKN090 24/23 A2997 RMK AO2 T02350225
K5A6 230015Z AUTO 03007KT 10SM CLR 24/23 A2998 RMK AO2 T02390228
K5A6 222355Z AUTO 04007KT 10SM SCT085 SCT110 25/23 A2997 RMK AO2 T02460228 10328 20246
K5A6 222335Z AUTO 36003KT 10SM SCT070 BKN085 25/22 A2997 RMK AO2 LTG DSNT NE T02470224
K5A6 222315Z AUTO 04005KT 10SM OVC070 25/23 A2996 RMK AO2 LTG DSNT NW T02510227
K5A6 222255Z AUTO 03007KT 10SM OVC080 26/22 A2996 RMK AO2 LTG DSNT E AND W T02570221
K5A6 222235Z AUTO 02007KT 10SM BKN075 OVC090 27/23 A2996 RMK AO2 LTG DSNT E AND W T02650231
K5A6 222215Z AUTO 02005KT 10SM SCT065 SCT075 BKN090 29/23 A2996 RMK AO2 T02870227
K5A6 222155Z AUTO 00000KT 10SM BKN100 29/23 A2994 RMK AO2 LTG DSNT N AND NE T02900225
K5A6 222135Z AUTO 21004KT 10SM OVC100 29/22 A2995 RMK AO2 LTG DSNT N AND NE T02910223
K5A6 222115Z AUTO 00000KT 10SM BKN110 29/22 A2995 RMK AO2 LTG DSNT N AND NE T02900221
K5A6 222055Z AUTO 00000KT 10SM SCT075 BKN120 29/21 A2994 RMK AO2 LTG DSNT NE T02850213
K5A6 222035Z AUTO 16005KT 10SM SCT045 SCT060 BKN075 28/22 A2995 RMK AO2 LTG DSNT NE T02840215
K5A6 222015Z AUTO 19009KT 150V230 10SM SCT047 SCT060 BKN080 32/21 A2994 RMK AO2 T03150214
K5A6 221955Z AUTO 22006KT 10SM SCT047 SCT060 SCT080 32/22 A2995 RMK AO2 LTG DSNT N T03150215
K5A6 221935Z AUTO 20005KT 10SM SCT045 32/21 A2995 RMK AO2 T03220213
K5A6 221915Z AUTO 20005KT 10SM SCT045 32/21 A2996 RMK AO2 LTG DSNT NW T03230214
K5A6 221855Z AUTO 19009KT 10SM SCT041 32/22 A2997 RMK AO2 T03240215
K5A6 221835Z AUTO 00000KT 10SM SCT041 31/22 A2998 RMK AO2 T03100216
K5A6 221815Z AUTO 17004KT 10SM SCT039 SCT050 31/22 A2999 RMK AO2 T03130216
K5A6 221755Z AUTO 17005KT 10SM CLR 31/22 A3001 RMK AO2 LTG DSNT SW T03070218 10314 20213
K5A6 221735Z AUTO 19006KT 10SM SCT036 SCT065 31/22 A3002 RMK AO2 T03130220